Time;durP1;ratioP1;P1;durP2;ratioP2;P2;SDS_P1;SDS_P2;PMS_P1;PMS_P2;Temp;Humidity;BMP_temperature;BMP_pressure;BME280_temperature;BME280_humidity;BME280_pressure;Samples;Min_cycle;Max_cycle;Signal;HPM_P1;HPM_P2
2022/08/02 00:00:23;;;;;;;10.38;7.80;;;;;;;;;;1752690;81;21038;-69
2022/08/02 00:02:50;;;;;;;10.45;8.55;;;;;;;;;;1751435;81;21086;-71
2022/08/02 00:05:17;;;;;;;11.80;9.70;;;;;;;;;;1750224;81;21043;-69
2022/08/02 00:07:44;;;;;;;11.65;8.68;;;;;;;;;;1747795;81;21530;-69
2022/08/02 00:10:11;;;;;;;12.23;8.55;;;;;;;;;;1753420;81;21072;-69
2022/08/02 00:12:39;;;;;;;11.20;8.70;;;;;;;;;;1749691;81;21039;-70
2022/08/02 00:15:07;;;;;;;10.55;8.58;;;;;;;;;;1752995;81;21012;-70
2022/08/02 00:17:35;;;;;;;12.25;8.85;;;;;;;;;;1752115;81;21542;-69
2022/08/02 00:22:58;;;;;;;12.20;9.68;;;;;;;;;;1754156;81;21048;-69
2022/08/02 00:25:24;;;;;;;10.80;9.45;;;;;;;;;;1752882;81;21072;-73
2022/08/02 00:27:51;;;;;;;10.63;9.55;;;;;;;;;;1752168;81;21024;-71
2022/08/02 00:30:18;;;;;;;10.58;9.33;;;;;;;;;;1753086;81;21479;-70
2022/08/02 00:32:45;;;;;;;12.47;9.40;;;;;;;;;;1751550;81;21000;-70
2022/08/02 00:35:11;;;;;;;9.80;8.78;;;;;;;;;;1750067;81;21060;-69
2022/08/02 00:37:39;;;;;;;9.68;8.30;;;;;;;;;;1751758;81;21579;-70
2022/08/02 00:40:09;;;;;;;10.98;9.15;;;;;;;;;;1751372;81;21043;-70
2022/08/02 00:42:37;;;;;;;12.93;9.70;;;;;;;;;;1751565;81;21051;-69
2022/08/02 00:45:05;;;;;;;14.68;11.57;;;;;;;;;;1751591;81;21515;-70
2022/08/02 00:47:32;;;;;;;13.38;11.28;;;;;;;;;;1748233;81;21050;-70
2022/08/02 00:49:59;;;;;;;14.45;11.57;;;;;;;;;;1748046;81;21071;-69
2022/08/02 00:52:26;;;;;;;13.18;11.55;;;;;;;;;;1747893;81;21008;-70
2022/08/02 00:54:52;;;;;;;15.80;11.97;;;;;;;;;;1752638;81;21036;-70
2022/08/02 00:57:19;;;;;;;19.07;14.00;;;;;;;;;;1752689;81;21072;-69
2022/08/02 00:59:47;;;;;;;16.93;14.07;;;;;;;;;;1750993;81;21071;-69
2022/08/02 01:02:14;;;;;;;19.23;15.68;;;;;;;;;;1751725;81;21039;-71
2022/08/02 01:04:41;;;;;;;18.57;15.88;;;;;;;;;;1753349;81;21046;-69
2022/08/02 01:07:08;;;;;;;20.17;16.05;;;;;;;;;;1752557;81;21063;-70
2022/08/02 01:09:34;;;;;;;18.12;14.35;;;;;;;;;;1751828;81;21622;-70
2022/08/02 01:12:01;;;;;;;16.52;13.35;;;;;;;;;;1749683;81;21071;-70
2022/08/02 01:14:28;;;;;;;15.43;12.75;;;;;;;;;;1753041;81;21111;-70
2022/08/02 01:16:58;;;;;;;14.50;12.73;;;;;;;;;;1751611;81;21539;-70
2022/08/02 01:19:29;;;;;;;14.85;12.30;;;;;;;;;;1753887;81;21036;-70
2022/08/02 01:22:02;;;;;;;15.85;12.20;;;;;;;;;;1706522;81;21075;-70
2022/08/02 01:24:42;;;;;;;15.05;12.68;;;;;;;;;;1750652;80;21031;-70
2022/08/02 01:27:37;;;;;;;15.60;11.88;;;;;;;;;;1751555;81;21013;-70
2022/08/02 01:30:06;;;;;;;15.25;11.65;;;;;;;;;;1752724;81;21040;-69
2022/08/02 01:32:36;;;;;;;14.40;12.07;;;;;;;;;;1752294;81;21583;-70
2022/08/02 01:35:12;;;;;;;14.10;12.20;;;;;;;;;;1742629;81;21035;-72
2022/08/02 01:37:45;;;;;;;15.32;12.73;;;;;;;;;;1746654;81;21088;-70
2022/08/02 01:40:16;;;;;;;16.07;12.63;;;;;;;;;;1749588;81;21543;-69
2022/08/02 01:42:47;;;;;;;17.07;13.28;;;;;;;;;;1750665;81;21050;-69
2022/08/02 01:45:15;;;;;;;16.12;13.13;;;;;;;;;;1750736;81;21071;-70
2022/08/02 01:47:42;;;;;;;15.23;13.48;;;;;;;;;;1753846;81;21002;-70
2022/08/02 01:50:12;;;;;;;17.42;13.45;;;;;;;;;;1752650;81;21024;-69
2022/08/02 01:52:42;;;;;;;16.48;14.35;;;;;;;;;;1747620;81;21012;-71
2022/08/02 01:55:30;;;;;;;16.87;14.15;;;;;;;;;;1750799;81;21365;-70
2022/08/02 01:57:58;;;;;;;16.65;14.18;;;;;;;;;;1757041;81;21504;-69
2022/08/02 02:00:28;;;;;;;16.57;13.72;;;;;;;;;;1752685;81;21062;-69
2022/08/02 02:02:56;;;;;;;14.50;12.23;;;;;;;;;;1754110;81;21074;-70
2022/08/02 02:05:25;;;;;;;15.38;12.90;;;;;;;;;;1750319;81;21012;-69
2022/08/02 02:07:55;;;;;;;12.07;10.75;;;;;;;;;;1749871;81;21047;-70
2022/08/02 02:10:28;;;;;;;12.63;10.50;;;;;;;;;;1747805;81;21048;-69
2022/08/02 02:12:57;;;;;;;11.93;9.70;;;;;;;;;;1749101;81;21039;-69
2022/08/02 02:15:25;;;;;;;11.63;8.45;;;;;;;;;;1753474;81;21838;-69
2022/08/02 02:17:53;;;;;;;10.75;8.63;;;;;;;;;;1753634;81;21053;-69
2022/08/02 02:23:31;;;;;;;14.45;10.78;;;;;;;;;;1749603;81;21024;-70
2022/08/02 02:25:58;;;;;;;14.38;10.40;;;;;;;;;;1752107;81;21035;-69
2022/08/02 02:28:33;;;;;;;13.20;10.90;;;;;;;;;;1750168;81;21277;-70
2022/08/02 02:31:06;;;;;;;15.20;10.72;;;;;;;;;;1749521;81;21613;-69
2022/08/02 02:33:36;;;;;;;12.53;11.10;;;;;;;;;;1748944;81;21066;-70
2022/08/02 02:36:03;;;;;;;14.90;12.30;;;;;;;;;;1750804;81;21115;-70
2022/08/02 02:38:31;;;;;;;15.40;11.80;;;;;;;;;;1755765;80;21538;-70
2022/08/02 02:41:00;;;;;;;13.40;12.00;;;;;;;;;;1751236;81;21585;-68
2022/08/02 02:43:28;;;;;;;14.63;13.03;;;;;;;;;;1751287;81;21051;-71
2022/08/02 02:45:55;;;;;;;14.63;12.85;;;;;;;;;;1752760;81;21567;-70
2022/08/02 02:48:22;;;;;;;14.55;12.30;;;;;;;;;;1742389;81;20999;-69
2022/08/02 02:50:51;;;;;;;13.28;11.68;;;;;;;;;;1753401;81;21048;-69
2022/08/02 02:53:18;;;;;;;12.37;10.95;;;;;;;;;;1747834;81;21058;-69
2022/08/02 02:55:46;;;;;;;13.75;11.22;;;;;;;;;;1747358;81;21040;-69
2022/08/02 02:58:13;;;;;;;13.53;12.13;;;;;;;;;;1745993;81;21055;-70
2022/08/02 03:03:25;;;;;;;14.98;13.15;;;;;;;;;;1752540;81;21102;-69
2022/08/02 03:05:52;;;;;;;16.15;12.85;;;;;;;;;;1752808;81;21089;-69
2022/08/02 03:08:19;;;;;;;15.83;13.90;;;;;;;;;;1749669;81;21551;-70
2022/08/02 03:11:08;;;;;;;15.43;13.50;;;;;;;;;;1751205;81;21094;-69
2022/08/02 03:19:27;;;;;;;16.25;13.60;;;;;;;;;;1754864;81;21569;-70
2022/08/02 03:21:53;;;;;;;16.75;14.05;;;;;;;;;;1753967;81;21106;-69
2022/08/02 03:24:20;;;;;;;17.10;13.32;;;;;;;;;;1751570;81;21052;-69
2022/08/02 03:26:48;;;;;;;15.83;14.13;;;;;;;;;;1750804;81;21087;-69
2022/08/02 03:29:15;;;;;;;14.23;12.75;;;;;;;;;;1750687;81;21117;-69
2022/08/02 03:31:44;;;;;;;15.53;13.68;;;;;;;;;;1751520;81;21544;-68
2022/08/02 03:34:11;;;;;;;14.65;13.10;;;;;;;;;;1752972;81;21114;-69
2022/08/02 03:36:40;;;;;;;13.62;12.23;;;;;;;;;;1749029;81;21123;-69
2022/08/02 03:39:07;;;;;;;13.83;12.43;;;;;;;;;;1750791;81;21031;-69
2022/08/02 03:41:36;;;;;;;13.32;12.03;;;;;;;;;;1748016;81;21082;-68
2022/08/02 03:44:03;;;;;;;14.87;13.30;;;;;;;;;;1749265;81;22598;-69
2022/08/02 03:46:32;;;;;;;16.90;15.10;;;;;;;;;;1748109;81;21499;-69
2022/08/02 03:48:59;;;;;;;18.12;16.23;;;;;;;;;;1748162;81;20995;-68
2022/08/02 03:51:26;;;;;;;22.10;19.37;;;;;;;;;;1749742;81;21496;-68
2022/08/02 03:53:53;;;;;;;23.62;21.10;;;;;;;;;;1750836;81;21052;-69
2022/08/02 03:56:21;;;;;;;24.92;21.77;;;;;;;;;;1748711;80;21488;-69
2022/08/02 03:58:48;;;;;;;24.55;21.30;;;;;;;;;;1749485;81;21617;-69
2022/08/02 04:01:15;;;;;;;30.65;22.75;;;;;;;;;;1748691;81;21040;-70
2022/08/02 04:03:42;;;;;;;28.67;23.57;;;;;;;;;;1751575;81;20992;-69
2022/08/02 04:06:09;;;;;;;26.45;22.10;;;;;;;;;;1752945;81;21072;-69
2022/08/02 04:08:36;;;;;;;28.00;23.10;;;;;;;;;;1752857;81;21590;-69
2022/08/02 04:13:49;;;;;;;31.02;26.07;;;;;;;;;;1749983;81;21043;-68
2022/08/02 04:16:20;;;;;;;30.88;26.70;;;;;;;;;;1755002;81;21094;-68
2022/08/02 04:18:51;;;;;;;38.85;30.95;;;;;;;;;;1751634;81;21028;-69
2022/08/02 04:21:19;;;;;;;44.67;35.13;;;;;;;;;;1753384;81;21047;-68
2022/08/02 04:23:46;;;;;;;44.13;35.25;;;;;;;;;;1752737;81;21055;-69
2022/08/02 04:26:14;;;;;;;39.70;32.08;;;;;;;;;;1753989;81;21519;-69
2022/08/02 04:28:41;;;;;;;30.23;24.40;;;;;;;;;;1752591;81;21183;-69
2022/08/02 04:31:08;;;;;;;24.18;19.45;;;;;;;;;;1748587;81;21031;-69
2022/08/02 04:33:36;;;;;;;19.55;16.35;;;;;;;;;;1750014;81;21030;-69
2022/08/02 04:36:05;;;;;;;17.30;14.07;;;;;;;;;;1747439;81;21048;-69
2022/08/02 04:38:32;;;;;;;14.07;11.55;;;;;;;;;;1748351;81;21004;-69
2022/08/02 04:40:59;;;;;;;12.65;11.33;;;;;;;;;;1751157;81;21044;-69
2022/08/02 04:43:25;;;;;;;11.80;10.50;;;;;;;;;;1748909;81;21042;-69
2022/08/02 04:45:53;;;;;;;10.60;9.28;;;;;;;;;;1754462;81;21008;-69
2022/08/02 04:48:21;;;;;;;9.90;9.00;;;;;;;;;;1751683;81;21036;-69
2022/08/02 04:50:48;;;;;;;9.40;8.50;;;;;;;;;;1750912;81;21095;-69
2022/08/02 04:53:15;;;;;;;9.53;8.63;;;;;;;;;;1750533;81;21030;-69
2022/08/02 04:55:42;;;;;;;9.45;8.55;;;;;;;;;;1751367;81;21059;-70
2022/08/02 04:58:09;;;;;;;9.60;8.60;;;;;;;;;;1752700;81;21020;-69
2022/08/02 05:00:35;;;;;;;8.90;8.10;;;;;;;;;;1753421;80;21107;-69
2022/08/02 05:03:02;;;;;;;8.83;8.00;;;;;;;;;;1750839;81;21019;-69
2022/08/02 05:05:29;;;;;;;9.20;8.33;;;;;;;;;;1751003;81;21054;-69
2022/08/02 05:07:56;;;;;;;8.48;7.65;;;;;;;;;;1752785;81;21542;-69
2022/08/02 05:10:25;;;;;;;8.73;7.92;;;;;;;;;;1749889;81;21545;-69
2022/08/02 05:12:51;;;;;;;8.88;7.87;;;;;;;;;;1749555;81;21137;-69
2022/08/02 05:15:18;;;;;;;8.80;8.00;;;;;;;;;;1751121;81;21051;-69
2022/08/02 05:17:47;;;;;;;8.63;7.83;;;;;;;;;;1752814;81;21027;-69
2022/08/02 05:20:16;;;;;;;9.43;8.00;;;;;;;;;;1748505;81;20991;-69
2022/08/02 05:22:44;;;;;;;8.35;7.55;;;;;;;;;;1747740;81;21600;-69
2022/08/02 05:25:11;;;;;;;9.48;8.48;;;;;;;;;;1749240;81;21064;-70
2022/08/02 05:27:38;;;;;;;8.10;7.40;;;;;;;;;;1752010;81;21063;-69
2022/08/02 05:30:06;;;;;;;9.48;8.30;;;;;;;;;;1752330;80;21076;-69
2022/08/02 05:32:36;;;;;;;9.13;8.23;;;;;;;;;;1753041;81;21067;-69
2022/08/02 05:35:08;;;;;;;7.95;7.25;;;;;;;;;;1753614;81;21004;-69
2022/08/02 05:37:36;;;;;;;8.58;7.45;;;;;;;;;;1750079;81;21154;-68
2022/08/02 05:40:04;;;;;;;7.97;7.28;;;;;;;;;;1748641;81;21003;-70
2022/08/02 05:45:43;;;;;;;9.40;7.10;;;;;;;;;;1751421;80;21135;-68
2022/08/02 05:48:10;;;;;;;8.23;7.33;;;;;;;;;;1746816;81;21071;-69
2022/08/02 05:53:44;;;;;;;9.70;7.37;;;;;;;;;;1759745;80;21062;-69
2022/08/02 05:56:35;;;;;;;7.50;6.80;;;;;;;;;;1742836;80;20955;-69
2022/08/02 05:59:15;;;;;;;8.15;7.00;;;;;;;;;;1748406;80;21083;-69
2022/08/02 06:07:42;;;;;;;15.78;11.10;;;;;;;;;;1749380;80;21003;-70
2022/08/02 06:10:14;;;;;;;16.15;12.40;;;;;;;;;;1755148;80;21036;-69
2022/08/02 06:12:47;;;;;;;20.62;14.30;;;;;;;;;;1741205;80;21538;-69
2022/08/02 06:15:22;;;;;;;15.70;11.30;;;;;;;;;;1752093;81;21544;-72
2022/08/02 06:17:49;;;;;;;30.15;19.17;;;;;;;;;;1747462;80;21072;-69
2022/08/02 06:20:17;;;;;;;39.92;24.30;;;;;;;;;;1749301;80;21001;-69
2022/08/02 06:26:20;;;;;;;41.00;25.92;;;;;;;;;;1759015;80;21132;-69
2022/08/02 06:28:55;;;;;;;41.45;26.73;;;;;;;;;;1759862;80;21049;-69
2022/08/02 06:31:22;;;;;;;50.78;29.75;;;;;;;;;;1749962;80;20992;-69
2022/08/02 06:33:49;;;;;;;46.37;27.90;;;;;;;;;;1753583;80;21135;-69
2022/08/02 06:36:22;;;;;;;44.35;28.80;;;;;;;;;;1757580;80;21098;-70
2022/08/02 06:39:04;;;;;;;36.25;22.55;;;;;;;;;;1749020;80;21534;-69
2022/08/02 06:41:38;;;;;;;37.08;25.50;;;;;;;;;;1746007;81;21028;-69
2022/08/02 06:44:07;;;;;;;40.70;25.75;;;;;;;;;;1740541;80;20988;-70
2022/08/02 06:46:34;;;;;;;42.35;26.20;;;;;;;;;;1740082;81;21026;-71
2022/08/02 06:49:02;;;;;;;37.10;24.52;;;;;;;;;;1742986;80;21021;-69
2022/08/02 06:51:30;;;;;;;33.58;21.93;;;;;;;;;;1755361;80;21059;-69
2022/08/02 06:53:57;;;;;;;31.45;20.60;;;;;;;;;;1746274;80;21496;-69
2022/08/02 06:59:50;;;;;;;31.80;19.02;;;;;;;;;;1744610;80;21090;-69
2022/08/02 07:02:18;;;;;;;23.10;16.45;;;;;;;;;;1753672;81;20985;-69
2022/08/02 07:04:45;;;;;;;29.05;18.17;;;;;;;;;;1749446;80;21472;-69
2022/08/02 07:07:12;;;;;;;27.87;18.48;;;;;;;;;;1757679;80;21078;-70
2022/08/02 07:09:39;;;;;;;27.07;18.35;;;;;;;;;;1736397;80;20977;-69
2022/08/02 07:12:06;;;;;;;22.82;15.40;;;;;;;;;;1762405;80;20972;-70
2022/08/02 07:18:34;;;;;;;23.38;15.75;;;;;;;;;;1737076;82;21099;-70
2022/08/02 07:21:04;;;;;;;21.65;15.72;;;;;;;;;;1738023;81;21043;-69
2022/08/02 07:23:31;;;;;;;22.50;15.68;;;;;;;;;;1747673;80;21049;-70
2022/08/02 07:25:58;;;;;;;22.10;14.90;;;;;;;;;;1718797;82;21047;-70
2022/08/02 07:28:25;;;;;;;23.25;14.80;;;;;;;;;;1739370;81;21022;-69
2022/08/02 07:30:52;;;;;;;23.32;15.75;;;;;;;;;;1761191;80;21136;-69
2022/08/02 07:33:19;;;;;;;25.37;14.40;;;;;;;;;;1747493;80;21050;-70
2022/08/02 07:35:46;;;;;;;21.02;14.60;;;;;;;;;;1745384;80;21012;-69
2022/08/02 07:41:45;;;;;;;21.73;13.55;;;;;;;;;;1763451;80;21082;-70
2022/08/02 07:44:12;;;;;;;19.77;13.60;;;;;;;;;;1754018;80;21016;-70
2022/08/02 07:46:41;;;;;;;21.62;14.40;;;;;;;;;;1736579;81;21102;-69
2022/08/02 07:49:08;;;;;;;19.52;13.90;;;;;;;;;;1753364;81;21009;-69
2022/08/02 07:55:08;;;;;;;18.65;13.08;;;;;;;;;;1742591;80;21005;-69
2022/08/02 07:57:36;;;;;;;17.30;11.93;;;;;;;;;;1754599;80;21039;-69
2022/08/02 08:03:14;;;;;;;19.98;12.03;;;;;;;;;;1753778;80;21053;-70
2022/08/02 08:05:44;;;;;;;16.52;10.50;;;;;;;;;;1750465;81;21033;-70
2022/08/02 08:08:10;;;;;;;14.23;10.15;;;;;;;;;;1751188;82;21047;-70
2022/08/02 08:10:40;;;;;;;16.07;11.03;;;;;;;;;;1744890;80;21552;-69
2022/08/02 08:13:06;;;;;;;15.98;10.38;;;;;;;;;;1750108;80;21051;-69
2022/08/02 08:15:33;;;;;;;11.00;7.62;;;;;;;;;;1744134;80;21021;-69
2022/08/02 08:18:00;;;;;;;9.70;7.62;;;;;;;;;;1742648;81;21509;-70
2022/08/02 08:20:27;;;;;;;10.18;7.97;;;;;;;;;;1743593;81;21040;-70
2022/08/02 08:22:54;;;;;;;8.08;7.25;;;;;;;;;;1722094;81;21068;-70
2022/08/02 08:25:20;;;;;;;8.78;7.10;;;;;;;;;;1743392;81;21021;-69
2022/08/02 08:31:03;;;;;;;19.30;10.35;;;;;;;;;;1737040;82;21070;-70
2022/08/02 08:33:31;;;;;;;15.18;10.38;;;;;;;;;;1736110;81;21143;-70
2022/08/02 08:35:58;;;;;;;13.25;9.75;;;;;;;;;;1742393;82;21152;-69
2022/08/02 08:38:24;;;;;;;14.53;9.55;;;;;;;;;;1715548;82;21111;-70
2022/08/02 08:40:51;;;;;;;12.47;9.10;;;;;;;;;;1733426;81;21540;-70
2022/08/02 08:43:18;;;;;;;11.25;9.50;;;;;;;;;;1744063;82;21520;-69
2022/08/02 08:45:46;;;;;;;14.63;8.63;;;;;;;;;;1730165;81;21030;-70
2022/08/02 08:48:15;;;;;;;12.05;8.28;;;;;;;;;;1705069;82;21049;-70
2022/08/02 08:50:45;;;;;;;10.82;8.35;;;;;;;;;;1753240;82;21069;-69
2022/08/02 08:53:13;;;;;;;11.33;8.28;;;;;;;;;;1735229;82;21045;-70
2022/08/02 08:55:40;;;;;;;10.23;8.40;;;;;;;;;;1732252;82;21097;-69
2022/08/02 08:58:07;;;;;;;19.00;9.30;;;;;;;;;;1730762;81;21013;-70
2022/08/02 09:00:35;;;;;;;12.75;8.73;;;;;;;;;;1727995;81;21272;-70
2022/08/02 09:03:04;;;;;;;12.33;8.13;;;;;;;;;;1741345;82;21009;-70
2022/08/02 09:05:37;;;;;;;10.18;8.40;;;;;;;;;;1735323;82;21025;-70
2022/08/02 09:08:05;;;;;;;14.30;8.63;;;;;;;;;;1709075;81;21859;-70
2022/08/02 09:10:41;;;;;;;12.70;8.38;;;;;;;;;;1749836;81;20986;-69
2022/08/02 09:13:23;;;;;;;10.38;8.80;;;;;;;;;;1696358;81;21029;-69
2022/08/02 09:15:55;;;;;;;10.08;8.70;;;;;;;;;;1677914;83;21508;-69
2022/08/02 09:18:33;;;;;;;11.48;8.75;;;;;;;;;;1680106;84;21044;-69
2022/08/02 09:21:02;;;;;;;10.95;8.45;;;;;;;;;;1748725;80;21561;-70
2022/08/02 09:23:46;;;;;;;10.18;7.15;;;;;;;;;;1757522;80;20960;-69
2022/08/02 09:26:15;;;;;;;8.53;6.83;;;;;;;;;;1732941;80;21013;-69
2022/08/02 09:28:45;;;;;;;10.90;7.45;;;;;;;;;;1744933;81;21020;-70
2022/08/02 09:31:17;;;;;;;11.30;7.45;;;;;;;;;;1756773;81;21606;-70
2022/08/02 09:33:45;;;;;;;10.80;7.80;;;;;;;;;;1721611;82;20990;-70
2022/08/02 09:36:13;;;;;;;8.83;7.75;;;;;;;;;;1734518;81;21067;-70
2022/08/02 09:39:00;;;;;;;9.78;7.37;;;;;;;;;;1748591;81;21476;-70
2022/08/02 09:41:29;;;;;;;8.73;7.15;;;;;;;;;;1752934;81;21091;-69
2022/08/02 09:43:57;;;;;;;8.05;7.08;;;;;;;;;;1749023;81;21092;-69
2022/08/02 09:46:26;;;;;;;8.60;7.72;;;;;;;;;;1732430;81;21083;-69
2022/08/02 09:48:59;;;;;;;8.00;7.15;;;;;;;;;;1749761;81;21511;-70
2022/08/02 09:51:33;;;;;;;7.50;6.80;;;;;;;;;;1748715;80;21509;-69
2022/08/02 09:54:02;;;;;;;8.88;7.70;;;;;;;;;;1748484;80;21059;-70
2022/08/02 09:56:42;;;;;;;10.10;8.25;;;;;;;;;;1746384;80;20981;-70
2022/08/02 09:59:09;;;;;;;9.25;8.33;;;;;;;;;;1752237;80;21012;-69
2022/08/02 10:01:37;;;;;;;8.80;7.92;;;;;;;;;;1735574;81;21083;-69
2022/08/02 10:04:09;;;;;;;8.63;7.05;;;;;;;;;;1751837;80;21063;-70
2022/08/02 10:06:41;;;;;;;8.48;7.65;;;;;;;;;;1744087;81;21048;-69
2022/08/02 10:09:09;;;;;;;10.20;8.73;;;;;;;;;;1740560;81;21036;-69
2022/08/02 10:11:36;;;;;;;8.10;7.30;;;;;;;;;;1773223;80;21075;-70
2022/08/02 10:14:05;;;;;;;8.63;7.72;;;;;;;;;;1755218;80;21078;-71
2022/08/02 10:16:38;;;;;;;8.18;7.30;;;;;;;;;;1760318;81;21067;-69
2022/08/02 10:19:05;;;;;;;9.15;7.10;;;;;;;;;;1759925;80;21113;-72
2022/08/02 10:25:07;;;;;;;;;;;;;;;;;;1762261;80;21034;-69
2022/08/02 10:27:35;;;;;;;8.93;7.05;;;;;;;;;;1760504;80;20133;-69
2022/08/02 10:30:03;;;;;;;8.53;7.60;;;;;;;;;;1771160;80;21169;-69
2022/08/02 10:32:39;;;;;;;8.63;7.35;;;;;;;;;;1765409;80;21157;-69
2022/08/02 10:35:09;;;;;;;10.40;8.10;;;;;;;;;;1758573;80;21043;-71
2022/08/02 10:37:38;;;;;;;8.75;7.47;;;;;;;;;;1747070;80;21044;-72
2022/08/02 10:40:21;;;;;;;9.40;7.90;;;;;;;;;;1744348;80;21016;-68
2022/08/02 10:42:46;;;;;;;8.18;7.37;;;;;;;;;;1747996;81;21033;-68
2022/08/02 10:45:15;;;;;;;9.03;7.35;;;;;;;;;;1734591;80;21439;-69
2022/08/02 10:48:02;;;;;;;8.50;7.60;;;;;;;;;;1750121;80;21060;-69
2022/08/02 10:50:48;;;;;;;8.08;7.30;;;;;;;;;;1738492;81;21024;-68
2022/08/02 10:53:27;;;;;;;11.18;8.00;;;;;;;;;;1739601;82;21218;-68
2022/08/02 10:55:56;;;;;;;8.00;7.20;;;;;;;;;;1747669;81;21530;-70
2022/08/02 10:58:26;;;;;;;8.68;7.78;;;;;;;;;;1741288;82;21036;-69
2022/08/02 11:00:53;;;;;;;9.93;7.17;;;;;;;;;;1720954;81;21082;-69
2022/08/02 11:03:33;;;;;;;8.60;7.80;;;;;;;;;;1739491;82;21056;-69
2022/08/02 11:06:02;;;;;;;11.95;8.03;;;;;;;;;;1723283;82;21171;-68
2022/08/02 11:08:32;;;;;;;9.45;8.45;;;;;;;;;;1743810;82;21004;-70
2022/08/02 11:11:03;;;;;;;9.28;7.95;;;;;;;;;;1743683;81;21771;-69
2022/08/02 11:13:30;;;;;;;9.43;8.18;;;;;;;;;;1746277;81;21044;-69
2022/08/02 11:16:03;;;;;;;9.08;8.10;;;;;;;;;;1747574;81;21067;-69
2022/08/02 11:18:52;;;;;;;9.50;8.45;;;;;;;;;;1752102;81;21059;-70
2022/08/02 11:21:27;;;;;;;9.20;8.20;;;;;;;;;;1732855;80;21097;-69
2022/08/02 11:23:55;;;;;;;9.78;8.13;;;;;;;;;;1756383;80;21016;-70
2022/08/02 11:26:34;;;;;;;9.28;7.72;;;;;;;;;;1772948;80;21031;-69
2022/08/02 11:29:03;;;;;;;9.08;8.15;;;;;;;;;;1778752;80;21020;-71
2022/08/02 11:31:38;;;;;;;9.60;8.55;;;;;;;;;;1759426;80;21055;-69
2022/08/02 11:34:05;;;;;;;9.58;8.33;;;;;;;;;;1759733;80;21003;-72
2022/08/02 11:36:32;;;;;;;9.15;8.13;;;;;;;;;;1760336;81;21110;-68
2022/08/02 11:39:10;;;;;;;9.83;8.60;;;;;;;;;;1737483;81;21062;-69
2022/08/02 11:41:38;;;;;;;10.00;8.43;;;;;;;;;;1739276;82;21084;-68
2022/08/02 11:44:05;;;;;;;10.53;8.75;;;;;;;;;;1753791;82;21049;-68
2022/08/02 11:46:32;;;;;;;9.93;8.50;;;;;;;;;;1747902;80;21517;-70
2022/08/02 11:49:13;;;;;;;10.23;8.38;;;;;;;;;;1745161;82;21008;-69
2022/08/02 11:51:52;;;;;;;9.23;8.30;;;;;;;;;;1761992;80;20976;-69
2022/08/02 11:54:23;;;;;;;11.55;8.60;;;;;;;;;;1724098;80;21023;-69
2022/08/02 11:56:49;;;;;;;9.83;8.83;;;;;;;;;;1738645;81;21055;-68
2022/08/02 11:59:16;;;;;;;11.20;8.85;;;;;;;;;;1750428;81;21009;-68
2022/08/02 12:01:43;;;;;;;9.65;8.63;;;;;;;;;;1747707;80;21051;-69
2022/08/02 12:04:10;;;;;;;9.85;8.85;;;;;;;;;;1748411;80;21060;-68
2022/08/02 12:06:37;;;;;;;9.45;8.55;;;;;;;;;;1752395;80;20981;-68
2022/08/02 12:09:08;;;;;;;13.28;8.85;;;;;;;;;;1746039;80;21047;-68
2022/08/02 12:11:36;;;;;;;10.20;9.13;;;;;;;;;;1723374;80;21425;-68
2022/08/02 12:14:03;;;;;;;11.18;9.03;;;;;;;;;;1749064;80;22537;-69
2022/08/02 12:19:28;;;;;;;10.58;9.18;;;;;;;;;;1747669;80;21009;-70
2022/08/02 12:25:21;;;;;;;12.33;9.50;;;;;;;;;;1761688;80;21022;-69
2022/08/02 12:27:48;;;;;;;10.72;9.63;;;;;;;;;;1736945;82;21208;-70
2022/08/02 12:30:23;;;;;;;12.47;9.23;;;;;;;;;;1751399;81;21035;-70
2022/08/02 12:32:51;;;;;;;11.43;9.88;;;;;;;;;;1735327;82;21067;-70
2022/08/02 12:35:21;;;;;;;13.43;9.28;;;;;;;;;;1726820;82;21138;-69
2022/08/02 12:37:49;;;;;;;10.53;8.90;;;;;;;;;;1726166;82;21633;-69
2022/08/02 12:40:22;;;;;;;11.05;9.68;;;;;;;;;;1745976;80;21130;-70
2022/08/02 12:42:51;;;;;;;11.28;9.53;;;;;;;;;;1744340;81;21101;-69
2022/08/02 12:45:18;;;;;;;12.03;9.50;;;;;;;;;;1747334;81;21525;-69
2022/08/02 12:47:47;;;;;;;9.90;8.90;;;;;;;;;;1718490;81;21101;-70
2022/08/02 12:50:21;;;;;;;11.68;9.10;;;;;;;;;;1708164;81;21054;-70
2022/08/02 12:52:47;;;;;;;;;;;;;;;;;;1728893;81;21036;-69
2022/08/02 12:55:17;;;;;;;14.07;9.43;;;;;;;;;;1733147;81;20135;-69
2022/08/02 12:57:51;;;;;;;11.45;8.93;;;;;;;;;;1696666;83;21087;-70
2022/08/02 13:00:28;;;;;;;12.25;9.40;;;;;;;;;;1709398;83;21084;-69
2022/08/02 13:02:56;;;;;;;11.25;9.10;;;;;;;;;;1725685;81;21078;-69
2022/08/02 13:05:23;;;;;;;13.15;9.90;;;;;;;;;;1718656;81;21028;-69
2022/08/02 13:07:50;;;;;;;13.00;10.23;;;;;;;;;;1729537;82;21071;-69
2022/08/02 13:10:18;;;;;;;11.70;10.40;;;;;;;;;;1717495;81;21049;-69
2022/08/02 13:15:56;;;;;;;12.90;9.90;;;;;;;;;;1727125;81;21113;-70
2022/08/02 13:18:23;;;;;;;18.32;10.03;;;;;;;;;;1748330;81;21000;-69
2022/08/02 13:20:50;;;;;;;12.33;10.03;;;;;;;;;;1745215;81;21046;-71
2022/08/02 13:23:17;;;;;;;10.53;9.43;;;;;;;;;;1753987;81;21548;-69
2022/08/02 13:25:44;;;;;;;13.75;10.82;;;;;;;;;;1750216;81;21058;-69
2022/08/02 13:28:11;;;;;;;13.70;10.53;;;;;;;;;;1710787;81;21164;-69
2022/08/02 13:30:38;;;;;;;15.18;10.60;;;;;;;;;;1749926;82;21016;-70
2022/08/02 13:33:05;;;;;;;12.95;10.38;;;;;;;;;;1753387;82;21083;-68
2022/08/02 13:35:32;;;;;;;11.88;9.53;;;;;;;;;;1738979;81;21579;-70
2022/08/02 13:38:03;;;;;;;11.08;9.75;;;;;;;;;;1738590;81;21091;-69
2022/08/02 13:40:29;;;;;;;11.68;10.23;;;;;;;;;;1731830;81;21527;-69
2022/08/02 13:42:57;;;;;;;11.68;9.90;;;;;;;;;;1729867;81;21607;-70
2022/08/02 13:45:23;;;;;;;11.10;9.90;;;;;;;;;;1750633;81;21076;-69
2022/08/02 13:47:50;;;;;;;11.83;9.88;;;;;;;;;;1711255;81;21033;-69
2022/08/02 13:50:17;;;;;;;10.45;9.33;;;;;;;;;;1730766;81;21111;-69
2022/08/02 13:52:44;;;;;;;11.28;9.85;;;;;;;;;;1742060;81;21062;-69
2022/08/02 13:55:10;;;;;;;12.93;10.40;;;;;;;;;;1725583;81;21051;-69
2022/08/02 13:57:37;;;;;;;13.68;10.45;;;;;;;;;;1740037;81;21035;-69
2022/08/02 14:00:06;;;;;;;14.80;10.63;;;;;;;;;;1726864;81;21022;-69
2022/08/02 14:02:33;;;;;;;10.43;9.33;;;;;;;;;;1744309;82;21028;-69
2022/08/02 14:05:02;;;;;;;10.98;9.63;;;;;;;;;;1744945;82;21028;-69
2022/08/02 14:07:29;;;;;;;10.80;9.68;;;;;;;;;;1744958;81;21016;-68
2022/08/02 14:09:56;;;;;;;16.95;14.30;;;;;;;;;;1740649;82;21139;-69
2022/08/02 14:12:23;;;;;;;11.15;9.60;;;;;;;;;;1737208;81;21036;-69
2022/08/02 14:17:50;;;;;;;9.98;8.93;;;;;;;;;;1738071;81;21025;-67
2022/08/02 14:20:16;;;;;;;10.65;9.23;;;;;;;;;;1738368;81;21002;-71
2022/08/02 14:22:43;;;;;;;15.88;12.70;;;;;;;;;;1738053;81;21059;-69
2022/08/02 14:25:10;;;;;;;11.68;9.18;;;;;;;;;;1737892;81;21517;-70
2022/08/02 14:33:26;;;;;;;10.40;8.48;;;;;;;;;;1734083;81;21027;-69
2022/08/02 14:35:53;;;;;;;10.72;8.68;;;;;;;;;;1729387;81;21086;-69
2022/08/02 14:38:19;;;;;;;9.73;8.48;;;;;;;;;;1747922;82;21000;-69
2022/08/02 14:40:46;;;;;;;9.03;8.00;;;;;;;;;;1731968;81;21092;-71
2022/08/02 14:45:59;;;;;;;11.85;8.45;;;;;;;;;;1716792;82;21032;-70
2022/08/02 14:48:26;;;;;;;12.50;9.00;;;;;;;;;;1743236;82;21515;-69
2022/08/02 14:50:53;;;;;;;9.50;8.00;;;;;;;;;;1734278;81;21004;-69
2022/08/02 14:53:19;;;;;;;10.15;8.35;;;;;;;;;;1746421;82;21035;-70
2022/08/02 14:55:46;;;;;;;9.58;8.58;;;;;;;;;;1724795;81;21030;-70
2022/08/02 14:58:13;;;;;;;10.45;8.45;;;;;;;;;;1737032;81;21061;-69
2022/08/02 15:00:40;;;;;;;9.80;8.80;;;;;;;;;;1738622;81;21078;-69
2022/08/02 15:03:07;;;;;;;9.93;8.93;;;;;;;;;;1735232;81;21094;-69
2022/08/02 15:05:34;;;;;;;10.23;9.23;;;;;;;;;;1728875;82;21034;-69
2022/08/02 15:08:01;;;;;;;11.22;8.70;;;;;;;;;;1716141;81;21009;-69
2022/08/02 15:10:28;;;;;;;9.60;8.60;;;;;;;;;;1738696;81;21040;-68
2022/08/02 15:12:55;;;;;;;9.98;8.98;;;;;;;;;;1732204;81;21092;-68
2022/08/02 15:15:24;;;;;;;11.33;9.30;;;;;;;;;;1724034;81;21052;-69
2022/08/02 15:17:53;;;;;;;10.63;8.75;;;;;;;;;;1741505;81;21036;-68
2022/08/02 15:20:20;;;;;;;9.60;8.70;;;;;;;;;;1747056;81;21115;-69
2022/08/02 15:22:47;;;;;;;9.88;8.93;;;;;;;;;;1747680;81;21032;-70
2022/08/02 15:25:15;;;;;;;10.58;8.53;;;;;;;;;;1713337;81;21048;-69
2022/08/02 15:27:41;;;;;;;11.20;8.30;;;;;;;;;;1734853;81;21141;-68
2022/08/02 15:30:09;;;;;;;11.25;8.53;;;;;;;;;;1743209;81;21040;-69
2022/08/02 15:32:36;;;;;;;9.68;8.68;;;;;;;;;;1746694;81;21006;-69
2022/08/02 15:35:03;;;;;;;9.03;8.13;;;;;;;;;;1742731;81;21055;-69
2022/08/02 15:37:34;;;;;;;9.43;7.85;;;;;;;;;;1732971;81;21091;-69
2022/08/02 15:40:01;;;;;;;9.35;8.10;;;;;;;;;;1728952;81;21057;-69
2022/08/02 15:42:28;;;;;;;9.35;8.45;;;;;;;;;;1737101;81;21042;-69
2022/08/02 15:44:54;;;;;;;9.83;8.43;;;;;;;;;;1733647;82;21533;-69
2022/08/02 15:47:21;;;;;;;9.73;8.80;;;;;;;;;;1726737;82;21041;-69
2022/08/02 15:49:48;;;;;;;10.98;8.63;;;;;;;;;;1711601;81;21041;-69
2022/08/02 15:52:15;;;;;;;9.90;8.90;;;;;;;;;;1729521;82;21528;-68
2022/08/02 15:54:42;;;;;;;9.95;8.90;;;;;;;;;;1742434;81;21086;-69
2022/08/02 15:57:09;;;;;;;10.45;8.15;;;;;;;;;;1721925;81;21072;-68